createdAt,value
2019-02-27T00:00:37.135Z,21.18
2019-02-27T00:05:41.707Z,21.18
2019-02-27T00:10:45.898Z,21.17
2019-02-27T00:15:49.371Z,21.16
2019-02-27T00:20:52.855Z,21.16
2019-02-27T00:25:56.334Z,21.16
2019-02-27T00:30:59.820Z,21.15
2019-02-27T00:36:03.305Z,21.13
2019-02-27T00:41:06.782Z,21.14
2019-02-27T00:46:10.736Z,21.13
2019-02-27T00:51:15.470Z,21.12
2019-02-27T00:56:18.956Z,21.12
2019-02-27T01:01:22.434Z,21.11
2019-02-27T01:06:25.922Z,21.11
2019-02-27T01:11:29.404Z,21.10
2019-02-27T01:16:32.888Z,21.10
2019-02-27T01:21:36.372Z,21.09
2019-02-27T01:26:39.862Z,21.09
2019-02-27T01:31:43.344Z,21.08
2019-02-27T01:36:46.836Z,21.07
2019-02-27T01:41:50.316Z,21.07
2019-02-27T01:46:54.602Z,21.07
2019-02-27T01:51:59.172Z,21.06
2019-02-27T01:57:03.645Z,21.04
2019-02-27T02:02:07.134Z,21.05
2019-02-27T02:07:10.780Z,21.04
2019-02-27T02:12:20.119Z,21.04
2019-02-27T02:17:26.637Z,21.02
2019-02-27T02:22:33.160Z,21.02
2019-02-27T02:27:45.473Z,21.02
2019-02-27T02:33:20.986Z,21.00
2019-02-27T02:38:33.562Z,21.01
2019-02-27T02:44:13.737Z,20.99
2019-02-27T02:49:29.283Z,20.98
2019-02-27T02:54:47.603Z,20.98
2019-02-27T03:00:18.398Z,20.96
2019-02-27T03:05:36.676Z,20.97
2019-02-27T03:10:46.133Z,20.97
2019-02-27T03:16:05.711Z,20.97
2019-02-27T03:21:17.768Z,20.95
2019-02-27T03:26:32.620Z,20.96
2019-02-27T03:31:57.689Z,20.94
2019-02-27T03:37:04.993Z,20.93
2019-02-27T03:42:17.204Z,20.94
2019-02-27T03:47:38.687Z,20.93
2019-02-27T03:53:03.727Z,20.94
2019-02-27T03:58:21.924Z,20.92
2019-02-27T04:03:40.196Z,20.93
2019-02-27T04:08:57.065Z,20.92
2019-02-27T04:14:05.010Z,20.91
2019-02-27T04:19:05.728Z,20.89
2019-02-27T04:24:09.195Z,20.91
2019-02-27T04:29:12.678Z,20.90
2019-02-27T04:34:16.151Z,20.90
2019-02-27T04:39:19.622Z,20.89
2019-02-27T04:44:23.093Z,20.90
2019-02-27T04:49:26.569Z,20.89
2019-02-27T04:54:30.038Z,20.89
2019-02-27T04:59:33.510Z,20.90
2019-02-27T05:04:36.990Z,20.88
2019-02-27T05:09:40.450Z,20.88
2019-02-27T05:14:43.925Z,20.89
2019-02-27T05:19:47.397Z,20.87
2019-02-27T05:24:50.870Z,20.86
2019-02-27T05:29:54.347Z,20.85
2019-02-27T05:34:57.827Z,20.84
2019-02-27T05:40:01.305Z,20.83
2019-02-27T05:45:07.215Z,20.83
2019-02-27T05:50:12.125Z,20.83
2019-02-27T05:55:15.596Z,20.83
2019-02-27T06:00:21.709Z,20.82
2019-02-27T06:05:25.188Z,20.82
2019-02-27T06:10:28.657Z,20.82
2019-02-27T06:15:32.128Z,20.81
2019-02-27T06:20:35.642Z,20.81
2019-02-27T06:25:39.108Z,20.80
2019-02-27T06:30:42.587Z,20.80
2019-02-27T06:35:46.129Z,20.81
2019-02-27T06:40:49.606Z,20.80
2019-02-27T06:45:54.250Z,20.79
2019-02-27T06:50:58.318Z,20.79
2019-02-27T06:56:03.981Z,20.79
2019-02-27T07:01:09.726Z,20.79
2019-02-27T07:06:12.793Z,20.79
2019-02-27T07:11:16.535Z,20.79
2019-02-27T07:16:20.474Z,20.78
2019-02-27T07:21:25.211Z,20.78
2019-02-27T07:26:28.685Z,20.78
2019-02-27T07:31:32.159Z,20.82
2019-02-27T07:36:35.965Z,20.88
2019-02-27T07:41:40.832Z,20.93
2019-02-27T07:46:44.308Z,20.96
2019-02-27T07:51:48.580Z,20.98
2019-02-27T07:56:52.144Z,20.32
2019-02-27T08:01:55.629Z,19.86
2019-02-27T08:06:59.092Z,19.58
2019-02-27T08:12:02.564Z,19.26
2019-02-27T08:17:17.015Z,19.16
2019-02-27T08:22:11.232Z,19.59
2019-02-27T08:27:14.704Z,19.80
2019-02-27T08:32:18.160Z,19.94
2019-02-27T08:37:21.624Z,20.05
2019-02-27T08:42:25.081Z,20.17
2019-02-27T08:47:28.545Z,20.23
2019-02-27T08:52:32.005Z,20.28
2019-02-27T08:57:35.468Z,20.32
2019-02-27T09:02:39.711Z,20.35
2019-02-27T09:07:43.220Z,20.38
2019-02-27T09:12:48.872Z,20.40
2019-02-27T09:17:51.830Z,20.43
2019-02-27T09:22:55.872Z,20.45
2019-02-27T09:27:59.442Z,20.48
2019-02-27T09:33:02.903Z,20.54
2019-02-27T09:38:06.437Z,20.57
2019-02-27T09:43:09.959Z,20.59
2019-02-27T09:48:13.437Z,20.63
2019-02-27T09:53:16.912Z,20.66
2019-02-27T09:58:21.985Z,20.69
2019-02-27T10:03:25.541Z,20.71
2019-02-27T10:08:29.006Z,20.70
2019-02-27T10:13:35.500Z,20.70
2019-02-27T10:18:38.592Z,20.69
2019-02-27T10:23:42.047Z,20.71
2019-02-27T10:28:45.511Z,20.75
2019-02-27T10:33:49.957Z,20.76
2019-02-27T10:38:53.425Z,20.74
2019-02-27T10:43:57.319Z,20.76
2019-02-27T10:49:00.736Z,20.80
2019-02-27T10:54:05.495Z,20.81
2019-02-27T10:59:09.041Z,20.82
2019-02-27T11:04:12.501Z,20.83
2019-02-27T11:09:24.275Z,20.88
2019-02-27T11:14:31.649Z,20.85
2019-02-27T11:19:34.794Z,20.90
2019-02-27T11:24:38.113Z,20.92
2019-02-27T11:29:41.574Z,20.94
2019-02-27T11:34:45.620Z,20.94
2019-02-27T11:39:50.244Z,20.94
2019-02-27T11:44:53.743Z,20.77
2019-02-27T11:49:57.214Z,20.54
2019-02-27T11:55:00.705Z,20.47
2019-02-27T12:00:06.032Z,20.57
2019-02-27T12:05:12.269Z,20.68
2019-02-27T12:10:18.469Z,20.76
2019-02-27T12:15:22.192Z,20.81
2019-02-27T12:20:26.113Z,20.83
2019-02-27T12:25:30.249Z,20.88
2019-02-27T12:30:37.121Z,20.92
2019-02-27T12:35:39.183Z,20.88
2019-02-27T12:40:42.665Z,20.88
2019-02-27T12:45:46.145Z,20.96
2019-02-27T12:50:49.617Z,21.01
2019-02-27T12:55:53.094Z,21.04
2019-02-27T13:00:56.572Z,21.05
2019-02-27T13:06:01.004Z,21.05
2019-02-27T13:11:07.731Z,21.07
2019-02-27T13:16:14.241Z,21.09
2019-02-27T13:21:20.206Z,21.09
2019-02-27T13:26:20.790Z,21.09
2019-02-27T13:31:24.270Z,21.09
2019-02-27T13:36:27.751Z,21.03
2019-02-27T13:41:31.248Z,21.07
2019-02-27T13:46:34.718Z,21.07
2019-02-27T13:51:40.246Z,21.06
2019-02-27T13:56:43.411Z,21.10
2019-02-27T14:01:46.898Z,21.10
2019-02-27T14:06:50.374Z,21.07
2019-02-27T14:11:58.384Z,21.05
2019-02-27T14:16:59.062Z,21.10
2019-02-27T14:22:07.116Z,21.10
2019-02-27T14:27:07.746Z,21.09
2019-02-27T14:32:11.226Z,21.10
2019-02-27T14:37:16.536Z,21.14
2019-02-27T14:42:20.776Z,21.23
2019-02-27T14:47:24.803Z,21.34
2019-02-27T14:52:28.286Z,21.42
2019-02-27T14:57:31.751Z,21.47
2019-02-27T15:02:35.250Z,21.50
2019-02-27T15:07:38.723Z,21.42
2019-02-27T15:12:42.193Z,21.40
2019-02-27T15:17:45.672Z,21.42
2019-02-27T15:22:52.512Z,21.42
2019-02-27T15:27:58.277Z,21.48
2019-02-27T15:33:03.788Z,21.48
2019-02-27T15:38:05.163Z,21.44
2019-02-27T15:43:11.444Z,21.43
2019-02-27T15:48:13.832Z,21.42
2019-02-27T15:53:17.294Z,21.40
2019-02-27T15:58:20.759Z,21.40
2019-02-27T16:03:24.219Z,21.39
2019-02-27T16:08:27.681Z,21.38
2019-02-27T16:13:31.981Z,21.37
2019-02-27T16:18:36.929Z,21.35
2019-02-27T16:23:41.171Z,21.35
2019-02-27T16:28:46.166Z,21.33
2019-02-27T16:33:49.819Z,21.34
2019-02-27T16:38:53.294Z,21.34
2019-02-27T16:43:56.751Z,21.36
2019-02-27T16:49:00.212Z,21.35
2019-02-27T16:54:03.872Z,21.36
2019-02-27T16:59:08.588Z,21.38
2019-02-27T17:04:12.531Z,21.42
2019-02-27T17:09:15.987Z,21.48
2019-02-27T17:14:21.171Z,21.49
2019-02-27T17:19:24.638Z,21.44
2019-02-27T17:24:28.102Z,21.56
2019-02-27T17:29:31.564Z,21.56
2019-02-27T17:34:35.489Z,21.58
2019-02-27T17:39:38.975Z,21.60
2019-02-27T17:44:42.437Z,21.64
2019-02-27T17:49:45.903Z,21.69
2019-02-27T17:54:50.856Z,21.69
2019-02-27T18:05:11.098Z,21.77
2019-02-27T18:10:15.384Z,21.81
2019-02-27T18:15:23.502Z,21.85
2019-02-27T18:20:27.042Z,21.90
2019-02-27T18:46:56.264Z,22.11
2019-02-27T18:51:59.392Z,22.16
2019-02-27T18:57:02.853Z,22.17
2019-02-27T19:02:07.581Z,22.19
2019-02-27T19:07:12.785Z,22.21
2019-02-27T19:12:16.415Z,22.21
2019-02-27T19:17:19.891Z,22.24
2019-02-27T19:22:23.404Z,22.22
2019-02-27T19:27:26.943Z,22.20
2019-02-27T19:32:30.752Z,22.10
2019-02-27T19:37:36.340Z,22.00
2019-02-27T19:42:48.305Z,21.95
2019-02-27T19:47:54.599Z,21.89
2019-02-27T19:52:57.021Z,21.84
2019-02-27T19:58:00.555Z,21.79
2019-02-27T20:03:04.095Z,21.76
2019-02-27T20:08:10.801Z,21.72
2019-02-27T20:13:13.047Z,21.68
2019-02-27T20:18:16.685Z,21.65
2019-02-27T20:23:20.141Z,21.61
2019-02-27T20:28:23.601Z,21.58
2019-02-27T20:33:27.131Z,21.55
2019-02-27T20:38:30.595Z,21.53
2019-02-27T20:43:34.064Z,21.51
2019-02-27T20:48:39.732Z,21.48
2019-02-27T20:53:42.720Z,21.45
2019-02-27T20:58:51.101Z,21.44
2019-02-27T21:03:51.370Z,21.42
2019-02-27T21:08:54.830Z,21.41
2019-02-27T21:13:58.296Z,21.41
2019-02-27T21:19:02.590Z,21.42
2019-02-27T21:24:06.703Z,21.44
2019-02-27T21:29:10.162Z,21.46
2019-02-27T21:34:13.623Z,21.45
2019-02-27T21:39:17.153Z,21.46
2019-02-27T21:44:25.505Z,21.46
2019-02-27T21:49:25.801Z,21.45
2019-02-27T21:54:29.268Z,21.46
2019-02-27T21:59:32.729Z,21.46
2019-02-27T22:04:36.188Z,21.45
2019-02-27T22:09:39.732Z,21.45
2019-02-27T22:14:43.194Z,21.45
2019-02-27T22:19:46.663Z,21.45
2019-02-27T22:24:52.268Z,21.46
2019-02-27T22:29:55.949Z,21.46
2019-02-27T22:35:02.800Z,21.45
2019-02-27T22:40:07.577Z,21.45
2019-02-27T22:45:16.599Z,21.45
2019-02-27T22:50:21.101Z,21.43
2019-02-27T22:55:24.578Z,21.44
2019-02-27T23:00:44.132Z,21.43
2019-02-27T23:05:47.801Z,21.43
2019-02-27T23:10:51.453Z,21.43
2019-02-27T23:15:57.807Z,21.43
2019-02-27T23:21:00.138Z,21.42
2019-02-27T23:26:03.706Z,21.42
2019-02-27T23:31:07.250Z,21.42
2019-02-27T23:36:10.729Z,21.41
2019-02-27T23:41:14.212Z,21.41
2019-02-27T23:46:18.489Z,21.41
2019-02-27T23:51:22.746Z,21.41
2019-02-27T23:56:26.227Z,21.40
